Terminal Aerodrome Forecast
Issued by NWS Omaha/Valley, NE

Home | Current Version | Previous Version | Text Only | Print | Product List | Glossary Off
Versions: 1 2 3 4 5 6 7 8 9 10 11 12 13 14 15 16 17 18 19 20 21 22 23 24 25 26 27 28 29 30 31 32 33 34

106
FTUS43 KOAX 230520
TAFOFK
TAF
KOFK 230520Z 2306/2406 33007KT P6SM FEW040 BKN250
     FM231500 33014KT P6SM SCT025 BKN030
     FM231700 33016G24KT P6SM VCSH SCT025 BKN040
     FM240000 35012KT P6SM BKN060
     FM240300 34008KT P6SM BKN045=

USA.gov is the U.S. government's official web portal to all federal, state and local government web resources and services.